Time;durP1;ratioP1;P1;durP2;ratioP2;P2;SDS_P1;SDS_P2;PMS_P1;PMS_P2;Temp;Humidity;BMP_temperature;BMP_pressure;BME280_temperature;BME280_humidity;BME280_pressure;Samples;Min_cycle;Max_cycle;Signal;HPM_P1;HPM_P2
2021/06/28 00:01:29;;;;;;;8.70;7.22;;;538.40;2406.40;;;;;;5096283;28;20050;-83
2021/06/28 00:03:58;;;;;;;8.85;6.93;;;538.40;2406.40;;;;;;5095842;28;20031;-84
2021/06/28 00:06:33;;;;;;;13.73;7.75;;;538.30;2406.40;;;;;;5095731;28;20024;-83
2021/06/28 00:09:03;;;;;;;11.82;6.43;;;538.40;2406.40;;;;;;5095899;28;20402;-83
2021/06/28 00:11:31;;;;;;;12.05;6.60;;;538.30;2406.40;;;;;;5095792;28;20028;-84
2021/06/28 00:14:04;;;;;;;11.88;6.55;;;538.30;2406.40;;;;;;5095891;28;20020;-83
2021/06/28 00:16:43;;;;;;;;;;;538.30;2406.40;;;;;;5096062;28;20046;-83
2021/06/28 00:19:14;;;;;;;8.40;6.78;;;538.30;2406.40;;;;;;5095119;28;19964;-83
2021/06/28 00:22:03;;;;;;;10.07;7.20;;;538.30;2406.40;;;;;;5095784;28;20364;-83
2021/06/28 00:25:08;;;;;;;9.60;6.57;;;538.30;2406.40;;;;;;5094563;28;20028;-83
2021/06/28 00:27:41;;;;;;;7.35;6.60;;;538.40;2406.40;;;;;;5095860;28;20012;-84
2021/06/28 00:30:24;;;;;;;8.98;7.07;;;538.20;2406.40;;;;;;5095644;28;20020;-83
2021/06/28 00:33:04;;;;;;;9.13;7.28;;;538.30;2406.40;;;;;;5095115;28;20050;-84
2021/06/28 00:35:30;;;;;;;10.63;7.18;;;538.30;2406.40;;;;;;5095417;28;20048;-83
2021/06/28 00:37:56;;;;;;;16.05;7.68;;;538.20;2406.40;;;;;;5095418;28;20024;-83
2021/06/28 00:40:22;;;;;;;11.40;7.80;;;537.80;2406.40;;;;;;5095640;28;20497;-83
2021/06/28 00:46:26;;;;;;;11.55;7.90;;;512.90;2380.80;;;;;;5014283;28;20032;-84
2021/06/28 00:48:55;;;;;;;13.10;9.60;;;537.70;2406.40;;;;;;5078748;28;20060;-84
2021/06/28 00:51:22;;;;;;;13.95;10.07;;;537.80;2406.40;;;;;;5095438;28;20085;-84
2021/06/28 00:53:48;;;;;;;11.73;6.93;;;537.90;2406.40;;;;;;5095206;28;20023;-83
2021/06/28 00:56:15;;;;;;;10.20;7.57;;;537.80;2406.40;;;;;;5095533;28;20031;-84
2021/06/28 00:58:43;;;;;;;10.52;7.38;;;512.90;2380.80;;;;;;5095546;28;20061;-83
2021/06/28 01:01:10;;;;;;;13.75;7.25;;;537.70;2406.40;;;;;;5094978;28;20020;-84
2021/06/28 01:03:37;;;;;;;9.75;7.22;;;512.90;2380.80;;;;;;5094930;28;20089;-84
2021/06/28 01:06:04;;;;;;;12.18;7.78;;;512.90;2380.80;;;;;;5094836;28;20080;-83
2021/06/28 01:08:30;;;;;;;11.15;7.72;;;537.60;2406.40;;;;;;5094913;28;20111;-83
2021/06/28 01:10:56;;;;;;;10.43;7.07;;;512.90;2380.80;;;;;;5094742;28;20047;-84
2021/06/28 01:13:23;;;;;;;9.80;7.43;;;538.00;2406.40;;;;;;5094669;28;20019;-84
2021/06/28 01:15:49;;;;;;;11.27;7.25;;;537.80;2406.40;;;;;;5094605;28;20028;-83
2021/06/28 01:18:16;;;;;;;11.07;7.28;;;512.90;2380.80;;;;;;5094551;28;20024;-84
2021/06/28 01:20:43;;;;;;;13.05;7.78;;;512.80;2380.80;;;;;;5094534;28;20016;-85
2021/06/28 01:23:23;;;;;;;13.88;7.63;;;512.60;2380.80;;;;;;5094568;28;20024;-83
2021/06/28 01:25:51;;;;;;;10.77;7.90;;;512.50;2380.80;;;;;;5094394;28;20110;-85
2021/06/28 01:28:24;;;;;;;10.70;7.57;;;512.70;2380.80;;;;;;5094435;28;20024;-84
2021/06/28 01:30:50;;;;;;;;;;;512.40;2380.80;;;;;;5095066;28;20478;-84
2021/06/28 01:33:17;;;;;;;12.95;7.90;;;512.40;2380.80;;;;;;5094293;28;20327;-84
2021/06/28 01:35:47;;;;;;;11.82;6.97;;;512.70;2380.80;;;;;;5093986;28;20043;-85
2021/06/28 01:38:14;;;;;;;11.75;7.05;;;512.40;2380.80;;;;;;5093952;28;20115;-84
2021/06/28 01:40:41;;;;;;;8.52;7.07;;;512.30;2380.80;;;;;;5093675;28;20024;-83
2021/06/28 01:43:11;;;;;;;11.57;7.97;;;512.30;2380.80;;;;;;5093814;28;20024;-84
2021/06/28 01:45:40;;;;;;;10.75;8.20;;;512.20;2380.80;;;;;;5092991;28;20023;-84
2021/06/28 01:48:10;;;;;;;9.60;7.50;;;512.90;2380.80;;;;;;5094115;28;20035;-84
2021/06/28 01:50:40;;;;;;;10.98;7.35;;;512.30;2380.80;;;;;;5093853;28;20016;-85
2021/06/28 01:53:07;;;;;;;10.80;7.50;;;512.20;2380.80;;;;;;5093955;28;20031;-84
2021/06/28 01:55:37;;;;;;;11.20;8.25;;;512.20;2380.80;;;;;;5093376;28;20028;-84
2021/06/28 01:58:05;;;;;;;13.90;8.63;;;512.90;2380.80;;;;;;5093521;28;20020;-82
2021/06/28 02:00:38;;;;;;;11.18;7.65;;;512.20;2380.80;;;;;;5093709;28;20072;-84
2021/06/28 02:03:14;;;;;;;10.90;7.68;;;512.40;2380.80;;;;;;5094169;28;20022;-85
2021/06/28 02:06:01;;;;;;;10.32;8.38;;;512.50;2380.80;;;;;;5094044;28;20024;-85
2021/06/28 02:11:27;;;;;;;12.85;8.13;;;512.20;2380.80;;;;;;5094684;28;20057;-85
2021/06/28 02:14:10;;;;;;;10.07;7.40;;;512.10;2380.80;;;;;;5093371;28;20031;-85
2021/06/28 02:16:57;;;;;;;12.13;8.55;;;512.40;2380.80;;;;;;5093445;28;20470;-84
2021/06/28 02:19:40;;;;;;;10.20;7.93;;;512.30;2380.80;;;;;;5093770;28;20047;-84
2021/06/28 02:22:35;;;;;;;9.70;8.70;;;512.90;2380.80;;;;;;5093076;28;20490;-85
2021/06/28 02:25:24;;;;;;;;;;;;;;;;;;;;;
2021/06/28 02:31:28;;;;;;;10.40;8.93;;;512.70;2380.80;;;;;;5092560;28;20074;-85
2021/06/28 02:33:58;;;;;;;11.15;8.57;;;512.70;2380.80;;;;;;5092496;28;20028;-85
2021/06/28 02:36:30;;;;;;;12.13;8.43;;;512.70;2380.80;;;;;;5092017;28;20043;-84
2021/06/28 02:38:57;;;;;;;13.00;8.52;;;512.30;2380.80;;;;;;5092963;28;20024;-85
2021/06/28 02:41:24;;;;;;;14.90;9.07;;;512.40;2380.80;;;;;;5092824;28;20024;-84
2021/06/28 02:43:52;;;;;;;13.32;8.57;;;512.40;2380.80;;;;;;5092472;28;20031;-84
2021/06/28 02:46:19;;;;;;;10.73;8.48;;;512.40;2380.80;;;;;;5092644;28;20151;-84
2021/06/28 02:48:45;;;;;;;11.95;8.63;;;512.40;2380.80;;;;;;5093010;28;20081;-84
2021/06/28 02:51:13;;;;;;;11.75;8.35;;;512.50;2380.80;;;;;;5093581;28;20020;-84
2021/06/28 02:53:40;;;;;;;11.98;8.77;;;512.30;2380.80;;;;;;5093475;28;20024;-84
2021/06/28 02:56:16;;;;;;;11.60;8.55;;;512.30;2380.80;;;;;;5093346;28;20065;-84
2021/06/28 02:58:54;;;;;;;12.40;8.57;;;512.20;2380.80;;;;;;5097223;28;20022;-84
2021/06/28 03:01:22;;;;;;;12.90;9.77;;;512.10;2380.80;;;;;;5097867;28;20027;-85
2021/06/28 03:03:48;;;;;;;12.73;9.43;;;512.10;2380.80;;;;;;5097901;28;20031;-84
2021/06/28 03:06:15;;;;;;;14.43;9.98;;;512.20;2380.80;;;;;;5097604;28;20024;-85
2021/06/28 03:08:43;;;;;;;14.77;9.43;;;512.30;2380.80;;;;;;5098480;28;20375;-83
2021/06/28 03:11:09;;;;;;;20.05;9.55;;;512.20;2380.80;;;;;;5101022;28;20475;-84
2021/06/28 03:13:36;;;;;;;13.35;9.98;;;512.20;2380.80;;;;;;5105801;28;20020;-82
2021/06/28 03:16:04;;;;;;;14.75;9.45;;;512.30;2380.80;;;;;;5103449;28;20460;-81
2021/06/28 03:18:30;;;;;;;15.95;9.52;;;512.10;2380.80;;;;;;5099746;28;20490;-82
2021/06/28 03:20:56;;;;;;;16.27;9.80;;;487.30;2380.80;;;;;;5096768;28;20406;-81
2021/06/28 03:23:22;;;;;;;14.93;9.95;;;487.30;2380.80;;;;;;5097053;28;20020;-81
2021/06/28 03:25:47;;;;;;;12.32;9.30;;;487.10;2380.80;;;;;;5097044;28;20107;-82
2021/06/28 03:28:13;;;;;;;12.10;9.50;;;487.30;2380.80;;;;;;5096233;28;20488;-83
2021/06/28 03:30:39;;;;;;;16.15;10.05;;;487.30;2380.80;;;;;;5096637;28;20024;-83
2021/06/28 03:33:05;;;;;;;13.88;9.80;;;512.00;2380.80;;;;;;5096311;28;20085;-82
2021/06/28 03:35:32;;;;;;;14.10;9.32;;;512.20;2380.80;;;;;;5095844;28;20063;-81
2021/06/28 03:37:58;;;;;;;10.52;9.20;;;512.10;2380.80;;;;;;5096485;28;20020;-83
2021/06/28 03:40:24;;;;;;;16.63;10.25;;;512.10;2380.80;;;;;;5096309;28;20158;-81
2021/06/28 03:42:50;;;;;;;12.80;9.65;;;512.00;2380.80;;;;;;5096077;28;20016;-83
2021/06/28 03:45:17;;;;;;;11.32;10.13;;;512.20;2380.80;;;;;;5096200;28;20027;-84
2021/06/28 03:47:43;;;;;;;21.30;10.48;;;512.10;2380.80;;;;;;5096282;28;20024;-82
2021/06/28 03:50:12;;;;;;;17.48;10.00;;;487.00;2380.80;;;;;;5095823;28;20024;-82
2021/06/28 03:52:38;;;;;;;17.90;10.40;;;512.30;2380.80;;;;;;5096105;28;20348;-83
2021/06/28 03:55:06;;;;;;;20.30;10.38;;;512.20;2380.80;;;;;;5095979;28;20027;-83
2021/06/28 03:57:32;;;;;;;20.92;11.55;;;512.20;2380.80;;;;;;5096048;28;20066;-83
2021/06/28 03:59:59;;;;;;;15.55;9.70;;;512.00;2380.80;;;;;;5096309;28;20020;-83
2021/06/28 04:02:26;;;;;;;15.23;12.15;;;512.20;2380.80;;;;;;5095701;28;20024;-83
2021/06/28 04:04:52;;;;;;;18.55;11.63;;;512.10;2380.80;;;;;;5096043;28;20475;-82
2021/06/28 04:07:18;;;;;;;17.65;10.23;;;512.00;2380.80;;;;;;5095382;28;20020;-82
2021/06/28 04:09:44;;;;;;;20.58;10.57;;;512.20;2380.80;;;;;;5095175;28;20019;-83
2021/06/28 04:12:11;;;;;;;14.02;10.15;;;512.40;2380.80;;;;;;5095864;28;20024;-83
2021/06/28 04:14:38;;;;;;;12.48;8.95;;;512.40;2380.80;;;;;;5095731;28;20474;-83
2021/06/28 04:17:07;;;;;;;14.40;11.32;;;512.10;2380.80;;;;;;5095287;28;20024;-82
2021/06/28 04:19:33;;;;;;;13.70;9.85;;;512.70;2380.80;;;;;;5095688;28;20479;-82
2021/06/28 04:21:59;;;;;;;15.80;9.63;;;512.30;2380.80;;;;;;5095298;28;20028;-83
2021/06/28 04:24:25;;;;;;;16.65;9.57;;;512.40;2380.80;;;;;;5095340;28;20153;-81
2021/06/28 04:26:51;;;;;;;17.05;9.93;;;512.50;2380.80;;;;;;5095315;28;20020;-84
2021/06/28 04:29:16;;;;;;;16.23;10.48;;;512.50;2380.80;;;;;;5095444;28;20027;-84
2021/06/28 04:31:42;;;;;;;18.52;10.77;;;512.50;2380.80;;;;;;5095365;28;20481;-82
2021/06/28 04:34:08;;;;;;;14.25;11.10;;;512.50;2380.80;;;;;;5095297;28;20115;-83
2021/06/28 04:36:34;;;;;;;15.55;9.70;;;512.50;2380.80;;;;;;5094674;28;20048;-82
2021/06/28 04:39:00;;;;;;;18.35;10.45;;;512.40;2380.80;;;;;;5095340;28;20547;-83
2021/06/28 04:41:26;;;;;;;16.40;9.40;;;512.30;2380.80;;;;;;5095263;28;20016;-82
2021/06/28 04:43:52;;;;;;;15.32;9.20;;;512.30;2380.80;;;;;;5094868;28;20517;-82
2021/06/28 04:46:18;;;;;;;13.95;8.90;;;512.20;2380.80;;;;;;5095067;28;20020;-82
2021/06/28 04:48:44;;;;;;;12.55;9.40;;;512.30;2380.80;;;;;;5094961;28;20070;-83
2021/06/28 04:51:10;;;;;;;13.27;8.57;;;512.30;2380.80;;;;;;5094968;28;20024;-82
2021/06/28 04:53:35;;;;;;;17.15;9.45;;;512.30;2380.80;;;;;;5094535;28;20024;-81
2021/06/28 04:56:04;;;;;;;21.27;8.85;;;512.30;2380.80;;;;;;5094989;28;20028;-83
2021/06/28 04:58:33;;;;;;;12.68;10.20;;;512.30;2380.80;;;;;;5095009;28;20028;-81
2021/06/28 05:00:59;;;;;;;13.88;9.20;;;512.40;2380.80;;;;;;5094896;28;20448;-82
2021/06/28 05:03:25;;;;;;;15.45;9.50;;;512.50;2380.80;;;;;;5094878;28;20020;-81
2021/06/28 05:05:50;;;;;;;14.15;9.00;;;512.70;2380.80;;;;;;5094977;28;20024;-82
2021/06/28 05:08:16;;;;;;;16.98;10.30;;;512.80;2380.80;;;;;;5094466;28;20018;-81
2021/06/28 05:10:42;;;;;;;14.88;9.43;;;512.80;2380.80;;;;;;5094602;28;20016;-82
2021/06/28 05:13:11;;;;;;;16.95;8.88;;;512.90;2380.80;;;;;;5094565;28;20027;-82
2021/06/28 05:15:37;;;;;;;14.95;8.40;;;537.60;2406.40;;;;;;5094368;28;20031;-82
2021/06/28 05:18:03;;;;;;;15.55;10.02;;;537.60;2406.40;;;;;;5094481;28;20020;-83
2021/06/28 05:20:29;;;;;;;15.00;9.40;;;537.60;2406.40;;;;;;5093874;28;20023;-83
2021/06/28 05:22:55;;;;;;;17.00;9.15;;;537.80;2406.40;;;;;;5094376;28;20020;-83
2021/06/28 05:25:21;;;;;;;12.18;8.88;;;537.80;2406.40;;;;;;5094784;28;20016;-84
2021/06/28 05:27:47;;;;;;;12.60;8.95;;;537.90;2406.40;;;;;;5094667;28;20020;-85
2021/06/28 05:30:15;;;;;;;15.63;8.60;;;537.90;2406.40;;;;;;5094477;28;20016;-85
2021/06/28 05:32:42;;;;;;;15.38;8.90;;;538.00;2406.40;;;;;;5094413;28;20020;-82
2021/06/28 05:35:10;;;;;;;14.13;8.48;;;537.70;2406.40;;;;;;5094173;28;20031;-83
2021/06/28 05:37:36;;;;;;;13.32;8.18;;;538.10;2406.40;;;;;;5093928;28;20050;-85
2021/06/28 05:40:03;;;;;;;14.57;7.90;;;538.30;2406.40;;;;;;5094363;28;20125;-82
2021/06/28 05:42:29;;;;;;;13.57;7.50;;;538.40;2406.40;;;;;;5094158;28;20120;-82
2021/06/28 05:44:54;;;;;;;11.98;7.93;;;538.30;2406.40;;;;;;5093997;28;20056;-83
2021/06/28 05:47:22;;;;;;;11.40;8.15;;;538.40;2406.40;;;;;;5093713;28;20467;-83
2021/06/28 05:49:49;;;;;;;17.17;8.30;;;538.50;2406.40;;;;;;5094315;28;20506;-83
2021/06/28 05:52:19;;;;;;;15.90;9.73;;;563.20;2432.00;;;;;;5094204;28;20020;-82
2021/06/28 05:54:45;;;;;;;8.02;6.80;;;563.40;2432.00;;;;;;5093827;28;20407;-83
2021/06/28 05:57:11;;;;;;;11.60;6.97;;;563.50;2432.00;;;;;;5093410;28;20059;-83
2021/06/28 05:59:37;;;;;;;10.63;7.43;;;563.60;2432.00;;;;;;5093745;28;20024;-83
2021/06/28 06:02:03;;;;;;;14.50;7.85;;;563.60;2432.00;;;;;;5093438;28;20073;-82
2021/06/28 06:04:29;;;;;;;14.13;7.60;;;563.60;2432.00;;;;;;5093863;28;20016;-82
2021/06/28 06:06:55;;;;;;;18.60;8.77;;;563.70;2432.00;;;;;;5093912;28;20036;-83
2021/06/28 06:09:20;;;;;;;11.90;7.57;;;563.80;2432.00;;;;;;5093313;28;20024;-83
2021/06/28 06:11:46;;;;;;;9.45;7.28;;;564.00;2432.00;;;;;;5092945;28;20024;-83
2021/06/28 06:14:13;;;;;;;10.15;7.13;;;564.00;2432.00;;;;;;5093280;28;20043;-84
2021/06/28 06:16:39;;;;;;;14.02;7.43;;;564.00;2432.00;;;;;;5093816;28;20096;-84
2021/06/28 06:19:05;;;;;;;10.75;6.68;;;588.80;2432.00;;;;;;5093700;28;20511;-82
2021/06/28 06:21:31;;;;;;;8.18;6.70;;;588.80;2432.00;;;;;;5094060;28;20345;-83
2021/06/28 06:23:57;;;;;;;11.05;7.03;;;588.90;2432.00;;;;;;5093386;28;20050;-82
2021/06/28 06:26:22;;;;;;;10.07;6.88;;;589.20;2432.00;;;;;;5093128;28;20024;-83
2021/06/28 06:28:48;;;;;;;9.57;6.78;;;589.30;2432.00;;;;;;5093465;28;20436;-83
2021/06/28 06:31:14;;;;;;;9.00;6.45;;;589.20;2432.00;;;;;;5093005;28;20490;-80
2021/06/28 06:33:40;;;;;;;10.60;6.80;;;589.40;2432.00;;;;;;5094478;28;20028;-80
2021/06/28 06:36:07;;;;;;;10.98;7.10;;;589.40;2432.00;;;;;;5093183;28;20056;-82
2021/06/28 06:38:33;;;;;;;9.73;7.10;;;589.70;2432.00;;;;;;5093865;28;20020;-83
2021/06/28 06:40:59;;;;;;;19.85;9.07;;;589.70;2432.00;;;;;;5093471;28;20024;-83
2021/06/28 06:43:24;;;;;;;9.52;7.35;;;589.70;2432.00;;;;;;5093857;28;20023;-82
2021/06/28 06:45:50;;;;;;;12.05;7.25;;;614.40;2432.00;;;;;;5092668;28;20028;-83
2021/06/28 06:48:17;;;;;;;15.85;7.53;;;614.40;2432.00;;;;;;5093592;28;20027;-81
2021/06/28 06:50:43;;;;;;;11.38;7.82;;;614.40;2432.00;;;;;;5093430;28;20016;-82
2021/06/28 06:53:09;;;;;;;16.13;8.77;;;614.60;2432.00;;;;;;5092722;28;20027;-83
2021/06/28 06:55:35;;;;;;;12.13;7.28;;;614.80;2432.00;;;;;;5092907;28;20165;-81
2021/06/28 06:58:05;;;;;;;14.10;7.15;;;615.00;2432.00;;;;;;5092692;28;20115;-84
2021/06/28 07:00:31;;;;;;;11.38;6.85;;;615.20;2432.00;;;;;;5092787;28;20042;-83
2021/06/28 07:02:57;;;;;;;15.05;6.65;;;615.20;2432.00;;;;;;5092657;28;20444;-84
2021/06/28 07:05:23;;;;;;;10.00;7.28;;;615.30;2432.00;;;;;;5092962;28;20111;-82
2021/06/28 07:07:49;;;;;;;9.55;6.70;;;640.10;2432.00;;;;;;5092979;28;20016;-82
2021/06/28 07:10:15;;;;;;;12.20;7.15;;;640.40;2432.00;;;;;;5093196;28;20020;-84
2021/06/28 07:12:43;;;;;;;13.40;6.90;;;588.80;2432.00;;;;;;5092973;28;20118;-84
2021/06/28 07:15:11;;;;;;;9.05;6.68;;;640.60;2432.00;;;;;;5092896;28;20024;-83
2021/06/28 07:17:37;;;;;;;14.05;8.27;;;640.90;2432.00;;;;;;5093069;28;20035;-82
2021/06/28 07:20:07;;;;;;;10.73;7.38;;;665.70;2432.00;;;;;;5093743;28;20058;-83
2021/06/28 07:22:33;;;;;;;11.15;6.50;;;665.70;2432.00;;;;;;5092702;28;20555;-83
2021/06/28 07:24:59;;;;;;;11.02;6.47;;;640.90;2432.00;;;;;;5092729;28;20202;-83
2021/06/28 07:27:25;;;;;;;7.55;6.25;;;666.40;2432.00;;;;;;5092890;28;20031;-83
2021/06/28 07:29:51;;;;;;;13.65;7.50;;;665.60;2432.00;;;;;;5092628;28;20016;-82
2021/06/28 07:32:17;;;;;;;8.65;6.03;;;665.90;2432.00;;;;;;5092569;28;20506;-82
2021/06/28 07:34:43;;;;;;;14.98;7.07;;;666.10;2432.00;;;;;;5092065;28;20016;-80
2021/06/28 07:37:08;;;;;;;9.60;5.95;;;666.40;2432.00;;;;;;5092904;28;20499;-82
2021/06/28 07:39:34;;;;;;;9.65;5.70;;;691.20;2432.00;;;;;;5092510;28;20020;-83
2021/06/28 07:42:00;;;;;;;10.05;5.72;;;691.40;2432.00;;;;;;5092139;28;20047;-83
2021/06/28 07:44:27;;;;;;;8.63;5.88;;;691.60;2432.00;;;;;;5095144;28;20352;-82
2021/06/28 07:46:53;;;;;;;7.30;6.00;;;691.70;2432.00;;;;;;5095826;28;20020;-82
2021/06/28 07:49:19;;;;;;;9.00;6.28;;;691.80;2432.00;;;;;;5100735;28;20031;-82
2021/06/28 07:51:45;;;;;;;10.07;5.93;;;691.90;2432.00;;;;;;5101569;28;20039;-81
2021/06/28 07:54:14;;;;;;;10.75;5.82;;;692.00;2432.00;;;;;;5102715;28;20016;-79
2021/06/28 07:56:40;;;;;;;12.30;5.88;;;691.90;2432.00;;;;;;5095646;28;20397;-78
2021/06/28 07:59:06;;;;;;;9.75;5.68;;;692.10;2432.00;;;;;;5095669;28;20031;-81
2021/06/28 08:01:32;;;;;;;9.52;6.00;;;692.00;2432.00;;;;;;5095558;28;20471;-81
2021/06/28 08:03:58;;;;;;;11.63;6.82;;;692.00;2432.00;;;;;;5095049;28;20039;-80
2021/06/28 08:06:24;;;;;;;10.10;7.25;;;716.80;2432.00;;;;;;5095375;28;20028;-81
2021/06/28 08:08:54;;;;;;;14.38;6.47;;;717.10;2432.00;;;;;;5095144;28;20397;-80
2021/06/28 08:11:21;;;;;;;8.25;5.47;;;716.80;2432.00;;;;;;5094709;28;20455;-80
2021/06/28 08:13:50;;;;;;;14.30;6.40;;;716.80;2432.00;;;;;;5095415;28;20120;-80
2021/06/28 08:16:17;;;;;;;13.77;6.30;;;716.80;2432.00;;;;;;5095054;28;20032;-81
2021/06/28 08:18:44;;;;;;;16.45;6.35;;;717.20;2432.00;;;;;;5095964;28;20103;-81
2021/06/28 08:21:11;;;;;;;8.45;5.53;;;717.70;2432.00;;;;;;5096578;28;20421;-81
2021/06/28 08:23:37;;;;;;;10.90;5.90;;;717.30;2432.00;;;;;;5094982;28;20020;-80
2021/06/28 08:26:03;;;;;;;7.32;5.93;;;742.40;2432.00;;;;;;5095043;28;20020;-80
2021/06/28 08:28:29;;;;;;;11.35;6.40;;;717.60;2432.00;;;;;;5095031;28;20082;-82
2021/06/28 08:30:55;;;;;;;10.38;6.05;;;742.50;2432.00;;;;;;5095480;28;20016;-80
2021/06/28 08:33:21;;;;;;;10.32;5.13;;;742.50;2432.00;;;;;;5094727;28;20115;-84
2021/06/28 08:35:48;;;;;;;12.20;5.25;;;742.50;2432.00;;;;;;5094383;28;20047;-81
2021/06/28 08:38:14;;;;;;;9.68;6.20;;;742.80;2432.00;;;;;;5094231;28;20029;-78
2021/06/28 08:40:40;;;;;;;9.45;5.40;;;742.80;2432.00;;;;;;5095763;28;20028;-78
2021/06/28 08:43:10;;;;;;;9.02;5.78;;;743.00;2432.00;;;;;;5094521;28;20031;-77
2021/06/28 08:45:40;;;;;;;9.52;5.70;;;743.10;2432.00;;;;;;5094502;28;20115;-79
2021/06/28 08:48:07;;;;;;;13.82;5.25;;;743.10;2432.00;;;;;;5094567;28;20028;-77
2021/06/28 08:50:39;;;;;;;11.27;5.93;;;743.30;2432.00;;;;;;5094717;28;20073;-79
2021/06/28 08:53:08;;;;;;;10.88;5.07;;;743.30;2380.80;;;;;;5094261;28;20027;-81
2021/06/28 08:55:35;;;;;;;11.80;6.00;;;768.00;2406.40;;;;;;5094813;28;20359;-78
2021/06/28 08:58:05;;;;;;;10.48;5.78;;;768.10;2355.20;;;;;;5094475;28;20016;-78
2021/06/28 09:00:31;;;;;;;9.88;7.18;;;768.30;2304.00;;;;;;5095029;28;20026;-79
2021/06/28 09:03:00;;;;;;;9.15;5.22;;;768.50;2278.40;;;;;;5094473;28;20023;-81
2021/06/28 09:05:27;;;;;;;8.80;6.55;;;768.60;2227.20;;;;;;5094392;28;20517;-79
2021/06/28 09:08:25;;;;;;;9.15;5.97;;;768.90;2176.00;;;;;;5095644;28;20020;-80
2021/06/28 09:10:50;;;;;;;5.13;3.35;;;768.80;2022.40;;;;;;5040969;28;20353;-81
2021/06/28 09:13:16;;;;;;;12.10;5.60;;;768.50;2022.40;;;;;;5090835;28;20073;-81
2021/06/28 09:15:50;;;;;;;5.43;3.75;;;768.90;1996.80;;;;;;5092377;28;20123;-79
2021/06/28 09:18:22;;;;;;;7.32;3.95;;;768.80;1996.80;;;;;;5093508;28;20024;-79
2021/06/28 09:20:50;;;;;;;16.52;4.60;;;768.90;1996.80;;;;;;5093126;28;20016;-82
2021/06/28 09:23:21;;;;;;;9.48;5.78;;;794.00;1971.20;;;;;;5099460;28;20020;-79
2021/06/28 09:25:46;;;;;;;10.07;4.13;;;794.30;1945.60;;;;;;5102860;28;20479;-79
2021/06/28 09:28:13;;;;;;;8.45;5.55;;;794.50;1894.40;;;;;;5092476;28;20065;-80
2021/06/28 09:30:45;;;;;;;7.75;3.95;;;819.20;1920.00;;;;;;5092871;28;20024;-79
2021/06/28 09:33:11;;;;;;;8.27;3.80;;;819.40;1894.40;;;;;;5093249;28;20059;-81
2021/06/28 09:35:39;;;;;;;4.60;3.15;;;819.60;1740.80;;;;;;5093980;28;20470;-80
2021/06/28 09:38:28;;;;;;;8.07;3.83;;;819.50;1792.00;;;;;;5094634;28;20046;-80
2021/06/28 09:40:54;;;;;;;6.45;4.95;;;819.60;1740.80;;;;;;5093075;28;20048;-77
2021/06/28 09:43:27;;;;;;;7.63;3.72;;;819.60;1740.80;;;;;;5094240;28;20070;-78
2021/06/28 09:45:56;;;;;;;8.93;4.00;;;819.80;1715.20;;;;;;5092489;28;20016;-77
2021/06/28 09:48:31;;;;;;;7.38;4.10;;;819.60;1715.20;;;;;;5091663;28;20962;-81
2021/06/28 09:51:26;;;;;;;5.80;4.25;;;819.50;1689.60;;;;;;5097841;28;20020;-80
2021/06/28 09:54:15;;;;;;;6.18;3.85;;;819.30;1740.80;;;;;;5089980;28;20023;-81
2021/06/28 09:56:53;;;;;;;9.40;5.00;;;819.70;1689.60;;;;;;5090843;28;20069;-78
2021/06/28 09:59:37;;;;;;;8.25;4.75;;;820.10;1689.60;;;;;;5085445;28;20127;-79
2021/06/28 10:02:26;;;;;;;11.13;5.15;;;820.10;1689.60;;;;;;5091435;28;20027;-80
2021/06/28 10:05:05;;;;;;;7.78;4.40;;;845.20;1689.60;;;;;;5092573;28;20055;-78
2021/06/28 10:07:36;;;;;;;10.25;3.80;;;845.30;1689.60;;;;;;5091794;28;20028;-81
2021/06/28 10:10:14;;;;;;;15.43;9.80;;;845.30;1664.00;;;;;;5092574;28;20043;-80
2021/06/28 10:12:43;;;;;;;14.10;6.97;;;845.50;1664.00;;;;;;5092375;28;20032;-80
2021/06/28 10:15:11;;;;;;;7.30;5.97;;;845.70;1664.00;;;;;;5092058;28;20016;-81
2021/06/28 10:17:38;;;;;;;10.93;4.20;;;845.60;1638.40;;;;;;5092137;28;20549;-79
2021/06/28 10:20:07;;;;;;;6.82;6.10;;;820.10;1638.40;;;;;;5093654;28;20031;-81
2021/06/28 10:22:34;;;;;;;6.57;4.45;;;820.10;1664.00;;;;;;5092726;28;20065;-79
2021/06/28 10:25:01;;;;;;;5.70;3.78;;;844.80;1689.60;;;;;;5092183;28;20106;-78
2021/06/28 10:27:28;;;;;;;12.93;5.10;;;845.10;1689.60;;;;;;5092594;28;20032;-83
2021/06/28 10:29:54;;;;;;;7.22;4.88;;;845.50;1689.60;;;;;;5091605;28;20051;-79
2021/06/28 10:32:20;;;;;;;5.18;3.95;;;845.00;1689.60;;;;;;5092401;28;20024;-79
2021/06/28 10:34:53;;;;;;;6.30;3.58;;;845.60;1612.80;;;;;;5092047;28;20363;-82
2021/06/28 10:37:46;;;;;;;8.13;4.22;;;845.30;1638.40;;;;;;5092078;28;20044;-79
2021/06/28 10:40:14;;;;;;;5.55;4.15;;;870.40;1612.80;;;;;;5092291;28;20063;-79
2021/06/28 10:42:45;;;;;;;7.75;4.20;;;845.70;1612.80;;;;;;5092930;28;20420;-82
2021/06/28 10:45:13;;;;;;;5.93;3.72;;;845.60;1638.40;;;;;;5091059;28;20028;-80
2021/06/28 10:47:41;;;;;;;9.55;5.60;;;844.90;1612.80;;;;;;5091984;28;20028;-82
2021/06/28 10:50:08;;;;;;;10.27;6.55;;;;;;;;;;5092242;28;20098;-80
2021/06/28 10:52:34;;;;;;;11.63;8.38;;;870.80;1638.40;;;;;;5092710;28;20016;-80
2021/06/28 10:55:02;;;;;;;10.23;4.55;;;871.00;1587.20;;;;;;5093348;28;20047;-79
2021/06/28 10:57:44;;;;;;;10.27;5.55;;;870.80;1587.20;;;;;;5091725;28;20123;-79
2021/06/28 11:00:10;;;;;;;6.32;4.32;;;870.90;1612.80;;;;;;5091543;28;20028;-80
2021/06/28 11:02:38;;;;;;;5.68;3.60;;;870.40;1587.20;;;;;;5092011;28;20020;-83
2021/06/28 11:05:06;;;;;;;4.60;3.50;;;870.70;1587.20;;;;;;5091710;28;20028;-79
2021/06/28 11:07:48;;;;;;;9.57;7.45;;;870.80;1536.00;;;;;;5091338;28;20032;-82
2021/06/28 11:10:37;;;;;;;11.85;6.10;;;871.30;1587.20;;;;;;5108900;28;20024;-82
2021/06/28 11:13:38;;;;;;;11.27;6.75;;;896.10;1587.20;;;;;;5091633;28;20455;-82
2021/06/28 11:16:30;;;;;;;9.97;4.27;;;896.50;1561.60;;;;;;5077730;28;20044;-82
2021/06/28 11:18:56;;;;;;;8.65;4.72;;;896.50;1536.00;;;;;;5093220;28;20031;-80
2021/06/28 11:21:40;;;;;;;10.55;7.38;;;896.00;1536.00;;;;;;5095471;28;20114;-80
2021/06/28 11:24:06;;;;;;;7.15;5.68;;;896.20;1536.00;;;;;;5096028;28;20023;-82
2021/06/28 11:26:36;;;;;;;9.57;8.57;;;896.70;1536.00;;;;;;5095405;28;20056;-81
2021/06/28 11:29:03;;;;;;;5.72;4.93;;;896.90;1510.40;;;;;;5096664;28;20355;-79
2021/06/28 11:31:31;;;;;;;8.07;5.20;;;921.60;1510.40;;;;;;5094406;28;20092;-79
2021/06/28 11:33:59;;;;;;;7.40;4.40;;;921.60;1484.80;;;;;;5101796;28;20055;-80
2021/06/28 11:36:35;;;;;;;4.55;3.70;;;921.90;1459.20;;;;;;5114803;28;20071;-82
2021/06/28 11:39:19;;;;;;;6.97;5.22;;;896.80;1433.60;;;;;;5075261;28;20032;-83
2021/06/28 11:41:45;;;;;;;8.48;6.85;;;921.80;1484.80;;;;;;5079468;28;20160;-84
2021/06/28 11:44:24;;;;;;;7.43;4.07;;;921.90;1459.20;;;;;;5114037;28;20028;-81
2021/06/28 11:46:50;;;;;;;6.03;5.00;;;921.90;1433.60;;;;;;5095365;28;20028;-82
2021/06/28 11:49:23;;;;;;;12.07;7.70;;;922.00;1433.60;;;;;;5096177;28;20031;-82
2021/06/28 11:51:52;;;;;;;8.55;5.15;;;922.20;1433.60;;;;;;5095645;28;20097;-82
2021/06/28 11:54:20;;;;;;;13.60;6.10;;;922.20;1433.60;;;;;;5094912;28;20020;-82
2021/06/28 11:56:49;;;;;;;11.60;7.43;;;922.40;1459.20;;;;;;5091930;28;20421;-81
2021/06/28 11:59:17;;;;;;;6.97;4.40;;;922.50;1408.00;;;;;;5100347;28;20045;-82
2021/06/28 12:02:01;;;;;;;5.97;4.50;;;921.90;1408.00;;;;;;5110689;28;20023;-82
2021/06/28 12:04:32;;;;;;;14.20;6.85;;;896.80;1408.00;;;;;;5114721;28;20107;-83
2021/06/28 12:06:58;;;;;;;;;;;921.80;1459.20;;;;;;5113017;28;20058;-82
2021/06/28 12:09:25;;;;;;;11.20;4.97;;;922.00;1382.40;;;;;;5088649;28;19908;-83
2021/06/28 12:12:03;;;;;;;7.80;4.15;;;922.20;1382.40;;;;;;5103033;28;20020;-80
2021/06/28 12:14:36;;;;;;;9.73;4.80;;;922.10;1382.40;;;;;;5090644;28;20027;-83
2021/06/28 12:17:24;;;;;;;7.20;4.18;;;922.10;1382.40;;;;;;5095536;28;20032;-81
2021/06/28 12:19:55;;;;;;;9.85;4.85;;;921.90;1356.80;;;;;;5095516;28;20020;-79
2021/06/28 12:22:26;;;;;;;6.63;3.90;;;921.90;1382.40;;;;;;5094978;28;20358;-80
2021/06/28 12:25:03;;;;;;;6.13;3.60;;;922.00;1356.80;;;;;;5095369;28;20073;-79
2021/06/28 12:27:31;;;;;;;6.85;3.95;;;921.90;1356.80;;;;;;5095284;28;20024;-81
2021/06/28 12:29:58;;;;;;;9.35;3.92;;;922.00;1382.40;;;;;;5096141;28;20035;-81
2021/06/28 12:32:29;;;;;;;10.00;4.38;;;921.80;1356.80;;;;;;5095293;28;20016;-81
2021/06/28 12:35:04;;;;;;;6.28;3.90;;;922.00;1382.40;;;;;;5095546;28;20031;-81